Terminal Aerodrome Forecast
Issued by NWS Grand Forks, ND

Home | Current Version | Previous Version | Text Only | Print | Product List | Glossary Off
Versions: 1 2 3 4 5 6 7 8 9 10 11 12 13 14 15 16 17 18 19 20 21

571
FTUS43 KFGF 040724 AAA
TAFFAR
TAF AMD
KFAR 040724Z 0407/0506 26005KT 4SM -SN OVC025
      TEMPO 0407/0409 1SM -SN OVC019
     FM041000 32005KT P6SM OVC015
     FM041600 33006KT P6SM OVC025
     FM041800 32007KT P6SM BKN040
     FM050200 26005KT P6SM BKN150
     FM050500 18005KT P6SM BKN150=

USA.gov is the U.S. government's official web portal to all federal, state and local government web resources and services.